createdAt,value
2023-09-08T00:01:31.613Z,1.05
2023-09-08T00:04:01.943Z,1.13
2023-09-08T00:06:33.255Z,0.82
2023-09-08T00:09:03.549Z,1.02
2023-09-08T00:11:33.668Z,0.90
2023-09-08T00:14:05.040Z,0.93
2023-09-08T00:16:35.264Z,1.17
2023-09-08T00:19:05.684Z,1.00
2023-09-08T00:21:35.869Z,1.10
2023-09-08T00:24:06.258Z,1.10
2023-09-08T00:26:36.336Z,0.90
2023-09-08T00:29:07.925Z,1.00
2023-09-08T00:31:40.757Z,1.00
2023-09-08T00:34:11.305Z,1.23
2023-09-08T00:36:41.318Z,1.20
2023-09-08T00:39:11.636Z,1.20
2023-09-08T00:41:41.713Z,1.13
2023-09-08T00:44:13.371Z,1.20
2023-09-08T00:46:44.986Z,1.30
2023-09-08T00:49:15.126Z,1.20
2023-09-08T00:51:45.127Z,1.20
2023-09-08T00:54:15.648Z,1.25
2023-09-08T00:56:46.048Z,1.20
2023-09-08T00:59:16.035Z,1.10
2023-09-08T01:01:46.300Z,1.00
2023-09-08T01:04:16.654Z,1.30
2023-09-08T01:06:47.613Z,1.20
2023-09-08T01:09:17.940Z,1.27
2023-09-08T01:11:48.740Z,1.40
2023-09-08T01:14:23.450Z,1.25
2023-09-08T01:16:54.012Z,1.30
2023-09-08T01:19:25.037Z,1.32
2023-09-08T01:22:09.691Z,1.50
2023-09-08T01:27:39.614Z,1.50
2023-09-08T01:30:10.281Z,1.57
2023-09-08T01:32:40.594Z,1.43
2023-09-08T01:35:11.176Z,1.10
2023-09-08T01:37:43.813Z,1.63
2023-09-08T01:40:14.562Z,1.60
2023-09-08T01:42:44.626Z,1.60
2023-09-08T01:45:15.235Z,1.47
2023-09-08T01:47:45.466Z,1.40
2023-09-08T01:50:15.535Z,1.60
2023-09-08T01:52:47.037Z,1.40
2023-09-08T01:57:58.675Z,1.47
2023-09-08T02:00:28.886Z,1.42
2023-09-08T02:02:59.146Z,1.70
2023-09-08T02:05:30.864Z,1.40
2023-09-08T02:08:01.219Z,1.40
2023-09-08T02:10:31.367Z,1.60
2023-09-08T02:13:01.932Z,1.47
2023-09-08T02:15:32.303Z,1.53
2023-09-08T02:18:02.664Z,1.47
2023-09-08T02:20:32.754Z,1.50
2023-09-08T02:23:05.580Z,1.30
2023-09-08T02:25:37.027Z,1.65
2023-09-08T02:28:08.151Z,1.52
2023-09-08T02:30:38.668Z,1.40
2023-09-08T02:33:08.911Z,1.60
2023-09-08T02:35:43.870Z,1.60
2023-09-08T02:38:13.943Z,1.42
2023-09-08T02:40:44.244Z,1.75
2023-09-08T02:43:14.119Z,1.60
2023-09-08T02:45:46.869Z,1.60
2023-09-08T02:48:17.134Z,1.60
2023-09-08T02:50:48.675Z,1.47
2023-09-08T02:53:18.766Z,1.75
2023-09-08T02:55:49.998Z,1.62
2023-09-08T02:58:20.263Z,1.57
2023-09-08T03:00:52.878Z,1.55
2023-09-08T03:03:23.722Z,1.80
2023-09-08T03:05:58.439Z,1.25
2023-09-08T03:08:29.284Z,1.92
2023-09-08T03:11:00.230Z,1.60
2023-09-08T03:13:31.112Z,1.60
2023-09-08T03:16:02.732Z,1.57
2023-09-08T03:18:34.541Z,1.62
2023-09-08T03:21:06.180Z,1.60
2023-09-08T03:23:38.899Z,1.63
2023-09-08T03:26:09.107Z,1.67
2023-09-08T03:28:39.078Z,1.70
2023-09-08T03:31:09.153Z,1.40
2023-09-08T03:33:39.548Z,1.70
2023-09-08T03:36:09.959Z,1.50
2023-09-08T03:38:40.050Z,1.47
2023-09-08T03:41:10.416Z,1.50
2023-09-08T03:43:41.878Z,1.73
2023-09-08T03:46:11.952Z,1.55
2023-09-08T03:48:42.217Z,1.57
2023-09-08T03:51:13.861Z,1.40
2023-09-08T03:53:43.827Z,1.80
2023-09-08T03:56:14.009Z,1.60
2023-09-08T03:58:44.159Z,1.70
2023-09-08T04:01:14.214Z,1.80
2023-09-08T04:03:44.470Z,1.80
2023-09-08T04:06:15.843Z,1.50
2023-09-08T04:08:49.188Z,1.67
2023-09-08T04:11:19.468Z,1.40
2023-09-08T04:13:49.646Z,1.63
2023-09-08T04:16:19.879Z,1.50
2023-09-08T04:18:50.138Z,1.57
2023-09-08T04:21:20.362Z,1.40
2023-09-08T04:23:50.436Z,1.75
2023-09-08T04:26:20.493Z,1.60
2023-09-08T04:28:50.370Z,1.62
2023-09-08T04:31:21.385Z,1.35
2023-09-08T04:34:12.180Z,1.60
2023-09-08T04:36:42.352Z,1.50
2023-09-08T04:39:13.420Z,1.40
2023-09-08T04:41:43.773Z,1.50
2023-09-08T04:44:14.857Z,1.30
2023-09-08T04:46:45.122Z,1.40
2023-09-08T04:49:15.431Z,1.87
2023-09-08T04:51:45.906Z,1.53
2023-09-08T04:54:16.051Z,1.95
2023-09-08T04:56:46.070Z,1.47
2023-09-08T04:59:17.246Z,1.40
2023-09-08T05:01:47.291Z,1.60
2023-09-08T05:04:17.516Z,1.30
2023-09-08T05:06:47.766Z,1.40
2023-09-08T05:09:17.905Z,1.40
2023-09-08T05:11:49.260Z,1.40
2023-09-08T05:14:19.382Z,1.20
2023-09-08T05:16:50.847Z,1.30
2023-09-08T05:19:22.802Z,1.20
2023-09-08T05:21:55.278Z,1.60
2023-09-08T05:24:26.971Z,1.80
2023-09-08T05:26:58.817Z,1.90
2023-09-08T05:29:29.044Z,2.02
2023-09-08T05:31:59.008Z,1.96
2023-09-08T05:34:29.082Z,2.20
2023-09-08T05:36:59.357Z,2.00
2023-09-08T05:39:29.436Z,2.03
2023-09-08T05:41:59.655Z,2.00
2023-09-08T05:44:30.892Z,1.83
2023-09-08T05:47:21.157Z,1.90
2023-09-08T05:49:51.712Z,1.82
2023-09-08T05:52:21.778Z,1.90
2023-09-08T05:54:51.877Z,2.05
2023-09-08T05:57:22.040Z,1.75
2023-09-08T05:59:52.262Z,1.80
2023-09-08T06:02:22.274Z,1.90
2023-09-08T06:04:52.403Z,2.02
2023-09-08T06:07:22.841Z,2.10
2023-09-08T06:09:53.168Z,1.70
2023-09-08T06:12:23.254Z,1.87
2023-09-08T06:14:53.513Z,1.87
2023-09-08T06:17:23.843Z,1.92
2023-09-08T06:19:54.381Z,2.15
2023-09-08T06:22:26.073Z,2.20
2023-09-08T06:24:57.519Z,2.10
2023-09-08T06:27:28.662Z,2.30
2023-09-08T06:29:58.885Z,2.40
2023-09-08T06:32:29.425Z,2.52
2023-09-08T06:35:00.801Z,2.47
2023-09-08T06:37:32.305Z,2.22
2023-09-08T06:40:02.979Z,2.30
2023-09-08T06:42:33.417Z,2.30
2023-09-08T06:45:03.439Z,2.20
2023-09-08T06:47:33.543Z,2.30
2023-09-08T06:50:05.185Z,2.40
2023-09-08T06:52:36.480Z,1.98
2023-09-08T06:55:06.935Z,2.10
2023-09-08T06:57:37.177Z,2.30
2023-09-08T07:00:12.746Z,2.00
2023-09-08T07:02:43.445Z,2.05
2023-09-08T07:05:13.712Z,2.05
2023-09-08T07:07:44.553Z,2.00
2023-09-08T07:10:15.339Z,1.87
2023-09-08T07:12:45.606Z,1.73
2023-09-08T07:15:15.643Z,2.00
2023-09-08T07:17:45.652Z,1.80
2023-09-08T07:20:15.822Z,1.90
2023-09-08T07:22:45.682Z,1.93
2023-09-08T07:25:15.682Z,2.20
2023-09-08T07:27:45.864Z,2.00
2023-09-08T07:30:16.880Z,1.90
2023-09-08T07:32:46.902Z,2.10
2023-09-08T07:35:18.709Z,2.13
2023-09-08T07:37:49.727Z,2.37
2023-09-08T07:40:19.778Z,2.33
2023-09-08T07:42:49.969Z,2.50
2023-09-08T07:45:21.468Z,2.25
2023-09-08T07:47:51.659Z,2.37
2023-09-08T07:50:27.093Z,2.40
2023-09-08T07:52:58.016Z,2.37
2023-09-08T07:55:33.237Z,2.10
2023-09-08T07:58:06.608Z,2.40
2023-09-08T08:00:36.525Z,2.07
2023-09-08T08:03:08.241Z,2.33
2023-09-08T08:05:38.315Z,2.10
2023-09-08T08:08:09.579Z,2.40
2023-09-08T08:10:39.510Z,2.02
2023-09-08T08:13:09.421Z,2.10
2023-09-08T08:15:42.398Z,2.10
2023-09-08T08:18:12.597Z,2.17
2023-09-08T08:20:42.760Z,2.10
2023-09-08T08:23:14.605Z,2.17
2023-09-08T08:25:44.525Z,2.50
2023-09-08T08:28:15.995Z,2.30
2023-09-08T08:30:48.891Z,2.00
2023-09-08T08:33:17.895Z,2.13
2023-09-08T08:35:54.651Z,2.03
2023-09-08T08:38:24.598Z,2.10
2023-09-08T08:40:56.263Z,1.95
2023-09-08T08:43:28.551Z,1.90
2023-09-08T08:46:00.996Z,2.12
2023-09-08T08:48:32.161Z,2.00
2023-09-08T08:51:04.446Z,2.10
2023-09-08T08:53:35.049Z,2.40
2023-09-08T08:56:05.252Z,2.58
2023-09-08T08:58:35.633Z,2.80
2023-09-08T09:01:06.347Z,2.52
2023-09-08T09:03:39.245Z,2.12
2023-09-08T09:06:10.915Z,2.45
2023-09-08T09:08:41.087Z,2.40
2023-09-08T09:11:11.161Z,2.50
2023-09-08T09:13:41.229Z,2.30
2023-09-08T09:16:12.322Z,2.35
2023-09-08T09:19:01.368Z,2.22
2023-09-08T09:21:45.896Z,2.10
2023-09-08T09:24:21.317Z,1.90
2023-09-08T09:26:53.252Z,2.10
2023-09-08T09:29:23.530Z,2.27
2023-09-08T09:32:01.638Z,2.05
2023-09-08T09:34:32.275Z,2.22
2023-09-08T09:37:02.411Z,2.04
2023-09-08T09:39:32.700Z,2.32
2023-09-08T09:42:02.732Z,1.98
2023-09-08T09:44:32.794Z,2.34
2023-09-08T09:47:04.730Z,1.98
2023-09-08T09:49:34.982Z,2.10
2023-09-08T09:52:05.183Z,2.00
2023-09-08T09:54:35.365Z,1.97
2023-09-08T09:57:05.635Z,1.83
2023-09-08T09:59:35.776Z,2.22
2023-09-08T10:02:06.173Z,1.98
2023-09-08T10:04:36.313Z,2.20
2023-09-08T10:07:06.728Z,1.70
2023-09-08T10:09:38.121Z,2.00
2023-09-08T10:12:08.711Z,1.98
2023-09-08T10:14:39.483Z,2.07
2023-09-08T10:17:09.508Z,2.55
2023-09-08T10:19:40.943Z,2.22
2023-09-08T10:22:12.139Z,2.58
2023-09-08T10:24:42.938Z,2.20
2023-09-08T10:27:14.869Z,2.30
2023-09-08T10:29:44.977Z,2.45
2023-09-08T10:32:16.508Z,2.60
2023-09-08T10:34:46.537Z,2.20
2023-09-08T10:37:26.975Z,2.42
2023-09-08T10:39:57.403Z,2.22
2023-09-08T10:42:29.489Z,2.20
2023-09-08T10:45:00.729Z,2.33
2023-09-08T10:47:39.980Z,2.20
2023-09-08T10:50:12.759Z,2.10
2023-09-08T10:52:42.909Z,2.08
2023-09-08T10:55:14.262Z,2.30
2023-09-08T10:57:48.824Z,2.30
2023-09-08T11:00:22.142Z,1.90
2023-09-08T11:02:56.861Z,2.20
2023-09-08T11:05:26.930Z,2.05
2023-09-08T11:07:57.126Z,2.40
2023-09-08T11:10:27.222Z,2.27
2023-09-08T11:12:59.751Z,2.10
2023-09-08T11:15:32.205Z,2.25
2023-09-08T11:18:06.783Z,2.40
2023-09-08T11:20:37.677Z,2.22
2023-09-08T11:23:28.461Z,1.90
2023-09-08T11:25:59.919Z,2.34
2023-09-08T11:28:32.156Z,2.15
2023-09-08T11:31:03.088Z,2.02
2023-09-08T11:33:36.422Z,2.12
2023-09-08T11:36:08.230Z,2.20
2023-09-08T11:38:39.619Z,2.00
2023-09-08T11:41:09.645Z,1.98
2023-09-08T11:43:39.716Z,2.10
2023-09-08T11:46:09.961Z,1.90
2023-09-08T11:48:41.662Z,2.10
2023-09-08T11:51:13.255Z,2.00
2023-09-08T11:53:43.290Z,2.20
2023-09-08T11:56:13.368Z,2.12
2023-09-08T11:58:43.316Z,2.13
2023-09-08T12:01:13.700Z,2.10
2023-09-08T12:03:57.850Z,1.90
2023-09-08T12:06:29.508Z,2.20
2023-09-08T12:09:03.086Z,2.00
2023-09-08T12:11:39.119Z,2.02
2023-09-08T12:14:11.310Z,2.02
2023-09-08T12:16:41.723Z,2.00
2023-09-08T12:19:12.160Z,1.98
2023-09-08T12:21:59.242Z,1.85
2023-09-08T12:24:52.745Z,2.24
2023-09-08T12:27:22.708Z,2.10
2023-09-08T12:30:02.515Z,2.10
2023-09-08T12:32:33.498Z,1.95
2023-09-08T12:35:12.172Z,2.20
2023-09-08T12:37:43.760Z,1.80
2023-09-08T12:40:14.643Z,1.90
2023-09-08T12:42:50.803Z,1.90
2023-09-08T12:45:18.389Z,1.90
2023-09-08T12:47:48.533Z,2.02
2023-09-08T12:50:20.322Z,2.02
2023-09-08T12:52:50.450Z,2.10
2023-09-08T12:55:20.502Z,1.90
2023-09-08T12:57:51.862Z,1.53
2023-09-08T13:00:23.418Z,1.97
2023-09-08T13:02:56.658Z,2.00
2023-09-08T13:05:26.690Z,2.07
2023-09-08T13:07:58.657Z,1.92
2023-09-08T13:10:28.883Z,2.37
2023-09-08T13:12:58.969Z,2.20
2023-09-08T13:15:29.348Z,2.10
2023-09-08T13:17:59.376Z,1.80
2023-09-08T13:20:29.853Z,1.95
2023-09-08T13:22:59.953Z,2.10
2023-09-08T13:25:30.444Z,2.20
2023-09-08T13:28:01.559Z,2.10
2023-09-08T13:30:32.664Z,1.62
2023-09-08T13:33:05.296Z,1.98
2023-09-08T13:35:35.856Z,2.10
2023-09-08T13:38:06.330Z,1.92
2023-09-08T13:40:36.487Z,1.78
2023-09-08T13:43:07.360Z,2.08
2023-09-08T13:45:37.939Z,2.10
2023-09-08T13:48:09.895Z,2.10
2023-09-08T13:50:44.585Z,1.90
2023-09-08T13:53:15.175Z,2.15
2023-09-08T13:55:46.204Z,1.98
2023-09-08T13:58:19.887Z,1.90
2023-09-08T14:00:53.587Z,2.00
2023-09-08T14:03:23.136Z,2.23
2023-09-08T14:05:55.330Z,2.20
2023-09-08T14:08:29.605Z,2.20
2023-09-08T14:13:34.276Z,2.22
2023-09-08T14:16:05.690Z,2.18
2023-09-08T14:18:37.391Z,2.40
2023-09-08T14:21:07.447Z,1.93
2023-09-08T14:23:38.912Z,2.10
2023-09-08T14:26:09.410Z,2.37
2023-09-08T14:28:41.228Z,2.00
2023-09-08T14:31:11.541Z,2.10
2023-09-08T14:33:41.877Z,2.40
2023-09-08T14:36:11.926Z,2.12
2023-09-08T14:38:43.311Z,2.50
2023-09-08T14:41:13.519Z,2.22
2023-09-08T14:43:45.138Z,2.15
2023-09-08T14:46:15.278Z,2.62
2023-09-08T14:48:45.622Z,2.00
2023-09-08T14:51:15.826Z,2.20
2023-09-08T14:53:46.051Z,2.30
2023-09-08T14:56:16.139Z,2.35
2023-09-08T14:58:46.077Z,2.70
2023-09-08T15:01:17.356Z,2.43
2023-09-08T15:03:47.514Z,2.40
2023-09-08T15:06:17.667Z,2.52
2023-09-08T15:08:48.616Z,2.35
2023-09-08T15:11:18.779Z,2.05
2023-09-08T15:13:49.043Z,2.47
2023-09-08T15:16:19.319Z,2.37
2023-09-08T15:18:50.857Z,2.60
2023-09-08T15:21:22.196Z,2.40
2023-09-08T15:23:52.166Z,2.37
2023-09-08T15:26:22.247Z,2.37
2023-09-08T15:28:52.214Z,2.30
2023-09-08T15:31:22.377Z,2.93
2023-09-08T15:33:53.796Z,2.60
2023-09-08T15:36:23.898Z,2.60
2023-09-08T15:38:53.893Z,2.67
2023-09-08T15:41:24.047Z,2.80
2023-09-08T15:43:54.362Z,2.57
2023-09-08T15:46:27.431Z,2.60
2023-09-08T15:48:57.621Z,2.62
2023-09-08T15:51:27.595Z,2.98
2023-09-08T15:53:57.751Z,2.80
2023-09-08T15:56:28.081Z,2.63
2023-09-08T15:58:59.402Z,2.77
2023-09-08T16:01:29.680Z,2.60
2023-09-08T16:04:00.032Z,2.70
2023-09-08T16:06:30.371Z,2.85
2023-09-08T16:09:00.346Z,2.60
2023-09-08T16:11:30.405Z,2.50
2023-09-08T16:14:01.709Z,2.60
2023-09-08T16:16:32.105Z,2.50
2023-09-08T16:19:03.652Z,2.65
2023-09-08T16:21:34.444Z,2.50
2023-09-08T16:24:07.816Z,2.40
2023-09-08T16:26:40.021Z,2.50
2023-09-08T16:29:12.628Z,2.52
2023-09-08T16:31:42.674Z,2.50
2023-09-08T16:34:12.888Z,2.15
2023-09-08T16:36:43.952Z,2.70
2023-09-08T16:39:15.683Z,2.20
2023-09-08T16:41:47.265Z,2.22
2023-09-08T16:44:17.477Z,2.40
2023-09-08T16:46:47.682Z,2.30
2023-09-08T16:49:18.928Z,2.13
2023-09-08T16:51:49.922Z,2.50
2023-09-08T16:54:20.173Z,2.30
2023-09-08T16:56:50.256Z,2.40
2023-09-08T16:59:22.248Z,2.27
2023-09-08T17:01:52.977Z,2.02
2023-09-08T17:04:23.289Z,2.20
2023-09-08T17:06:53.483Z,2.17
2023-09-08T17:09:24.294Z,2.40
2023-09-08T17:11:54.386Z,2.13
2023-09-08T17:14:24.492Z,2.10
2023-09-08T17:16:54.460Z,2.10
2023-09-08T17:19:24.532Z,2.20
2023-09-08T17:21:54.594Z,2.03
2023-09-08T17:24:24.595Z,1.83
2023-09-08T17:26:54.705Z,1.90
2023-09-08T17:29:25.071Z,2.03
2023-09-08T17:31:56.275Z,2.00
2023-09-08T17:34:26.491Z,2.00
2023-09-08T17:36:58.199Z,1.90
2023-09-08T17:39:29.743Z,2.02
2023-09-08T17:41:59.944Z,2.25
2023-09-08T17:44:29.964Z,1.95
2023-09-08T17:47:01.461Z,2.08
2023-09-08T17:49:31.630Z,1.80
2023-09-08T17:52:04.281Z,1.82
2023-09-08T17:54:33.186Z,1.82
2023-09-08T17:57:03.431Z,1.60
2023-09-08T17:59:33.629Z,1.92
2023-09-08T18:02:04.139Z,1.70
2023-09-08T18:04:36.535Z,1.40
2023-09-08T18:07:07.101Z,1.52
2023-09-08T18:09:38.402Z,1.57
2023-09-08T18:12:09.888Z,1.50
2023-09-08T18:14:40.046Z,1.70
2023-09-08T18:17:11.518Z,1.50
2023-09-08T18:19:41.983Z,1.70
2023-09-08T18:22:14.755Z,1.55
2023-09-08T18:24:44.813Z,1.62
2023-09-08T18:27:14.995Z,1.40
2023-09-08T18:29:46.269Z,1.52
2023-09-08T18:32:18.041Z,1.60
2023-09-08T18:34:53.695Z,1.30
2023-09-08T18:37:22.578Z,1.60
2023-09-08T18:39:53.781Z,1.47
2023-09-08T18:42:24.216Z,1.50
2023-09-08T18:44:54.173Z,1.55
2023-09-08T18:47:25.410Z,1.50
2023-09-08T18:49:55.506Z,1.40
2023-09-08T18:52:26.475Z,1.50
2023-09-08T18:54:56.567Z,1.60
2023-09-08T18:57:27.304Z,1.40
2023-09-08T18:59:57.338Z,1.53
2023-09-08T19:02:30.334Z,1.30
2023-09-08T19:05:00.538Z,1.20
2023-09-08T19:07:30.753Z,1.27
2023-09-08T19:10:00.690Z,1.20
2023-09-08T19:12:30.704Z,1.40
2023-09-08T19:15:00.616Z,1.30
2023-09-08T19:17:30.886Z,1.22
2023-09-08T19:20:00.809Z,1.12
2023-09-08T19:22:32.195Z,0.95
2023-09-08T19:25:02.798Z,1.10
2023-09-08T19:27:33.522Z,1.00
2023-09-08T19:30:03.521Z,0.95
2023-09-08T19:32:33.554Z,1.00
2023-09-08T19:35:03.658Z,0.90
2023-09-08T19:37:33.628Z,0.90
2023-09-08T19:40:04.985Z,0.93
2023-09-08T19:42:35.572Z,1.00
2023-09-08T19:45:06.725Z,0.97
2023-09-08T19:47:37.525Z,1.10
2023-09-08T19:50:09.143Z,0.80
2023-09-08T19:52:40.922Z,0.80
2023-09-08T19:55:12.604Z,1.10
2023-09-08T19:57:42.763Z,1.10
2023-09-08T20:00:13.730Z,0.85
2023-09-08T20:02:44.609Z,1.00
2023-09-08T20:05:15.044Z,0.90
2023-09-08T20:07:45.712Z,0.90
2023-09-08T20:10:17.011Z,0.90
2023-09-08T20:12:48.412Z,0.90
2023-09-08T20:15:18.741Z,0.90
2023-09-08T20:17:48.755Z,1.00
2023-09-08T20:20:19.138Z,1.10
2023-09-08T20:22:49.333Z,1.00
2023-09-08T20:25:20.686Z,1.10
2023-09-08T20:27:51.141Z,0.83
2023-09-08T20:30:21.294Z,1.10
2023-09-08T20:32:51.468Z,1.10
2023-09-08T20:35:21.836Z,1.10
2023-09-08T20:37:51.653Z,1.25
2023-09-08T20:40:21.581Z,1.20
2023-09-08T20:42:53.125Z,1.00
2023-09-08T20:45:23.679Z,1.00
2023-09-08T20:47:55.217Z,0.95
2023-09-08T20:50:27.652Z,0.93
2023-09-08T20:52:58.695Z,1.10
2023-09-08T20:55:28.812Z,1.00
2023-09-08T20:57:58.836Z,0.90
2023-09-08T21:00:29.120Z,1.00
2023-09-08T21:02:59.858Z,1.10
2023-09-08T21:05:31.352Z,1.20
2023-09-08T21:08:01.374Z,1.20
2023-09-08T21:10:31.308Z,1.10
2023-09-08T21:13:01.420Z,1.27
2023-09-08T21:15:31.480Z,1.30
2023-09-08T21:18:01.607Z,1.05
2023-09-08T21:20:32.818Z,1.05
2023-09-08T21:23:04.249Z,1.20
2023-09-08T21:25:34.591Z,1.17
2023-09-08T21:28:05.297Z,1.30
2023-09-08T21:30:35.495Z,1.30
2023-09-08T21:33:08.446Z,1.17
2023-09-08T21:35:39.039Z,1.10
2023-09-08T21:38:10.343Z,1.20
2023-09-08T21:40:45.317Z,1.10
2023-09-08T21:43:15.352Z,1.00
2023-09-08T21:45:46.930Z,1.30
2023-09-08T21:48:16.973Z,0.90
2023-09-08T21:50:47.200Z,1.25
2023-09-08T21:53:17.221Z,0.97
2023-09-08T21:55:49.715Z,1.20
2023-09-08T21:58:20.895Z,1.20
2023-09-08T22:00:51.996Z,1.30
2023-09-08T22:03:22.342Z,1.20
2023-09-08T22:05:52.819Z,1.37
2023-09-08T22:08:22.902Z,1.15
2023-09-08T22:10:53.281Z,0.95
2023-09-08T22:13:23.337Z,1.15
2023-09-08T22:15:53.854Z,1.00
2023-09-08T22:18:24.808Z,1.02
2023-09-08T22:20:57.970Z,1.05
2023-09-08T22:23:29.354Z,1.23
2023-09-08T22:25:59.397Z,1.00
2023-09-08T22:28:29.635Z,1.10
2023-09-08T22:30:59.623Z,1.00
2023-09-08T22:33:31.325Z,1.00
2023-09-08T22:36:01.962Z,1.00
2023-09-08T22:38:32.907Z,1.00
2023-09-08T22:41:03.287Z,1.00
2023-09-08T22:43:33.382Z,1.20
2023-09-08T22:46:04.176Z,0.98
2023-09-08T22:48:35.327Z,1.62
2023-09-08T22:51:05.560Z,2.05
2023-09-08T22:53:37.470Z,3.17
2023-09-08T22:56:07.791Z,4.12
2023-09-08T22:58:44.392Z,5.90
2023-09-08T23:01:15.890Z,6.16
2023-09-08T23:03:47.291Z,7.40
2023-09-08T23:06:17.651Z,7.70
2023-09-08T23:08:47.708Z,8.10
2023-09-08T23:11:17.946Z,7.75
2023-09-08T23:13:49.375Z,7.33
2023-09-08T23:16:19.652Z,8.28
2023-09-08T23:18:49.678Z,7.90
2023-09-08T23:21:20.735Z,7.70
2023-09-08T23:23:50.749Z,6.90
2023-09-08T23:26:20.917Z,6.90
2023-09-08T23:28:53.987Z,6.47
2023-09-08T23:31:24.310Z,6.07
2023-09-08T23:33:55.810Z,5.78
2023-09-08T23:36:26.168Z,5.27
2023-09-08T23:38:56.097Z,4.80
2023-09-08T23:41:26.458Z,4.65
2023-09-08T23:43:56.974Z,4.70
2023-09-08T23:46:27.263Z,4.60
2023-09-08T23:48:57.905Z,4.20
2023-09-08T23:51:28.261Z,3.33
2023-09-08T23:53:58.300Z,3.77
2023-09-08T23:56:28.640Z,3.52
2023-09-08T23:58:58.840Z,3.50
